Time;durP1;ratioP1;P1;durP2;ratioP2;P2;SDS_P1;SDS_P2;PMS_P1;PMS_P2;Temp;Humidity;BMP_temperature;BMP_pressure;BME280_temperature;BME280_humidity;BME280_pressure;Samples;Min_cycle;Max_cycle;Signal;HPM_P1;HPM_P2
2024/04/15 00:02:06;;;;;;;7.60;2.30;;;6.70;99.90;;;;;;5333852;26;20005;-82
2024/04/15 00:04:32;;;;;;;7.57;2.20;;;6.70;99.90;;;;;;5333644;26;20009;-80
2024/04/15 00:06:58;;;;;;;9.18;3.22;;;6.70;99.90;;;;;;5336725;26;20435;-79
2024/04/15 00:09:24;;;;;;;9.05;2.67;;;6.60;99.90;;;;;;5392318;26;20473;-81
2024/04/15 00:11:50;;;;;;;7.47;2.60;;;6.50;99.90;;;;;;5335530;26;20074;-81
2024/04/15 00:14:16;;;;;;;8.52;3.13;;;6.50;99.90;;;;;;5333546;26;20410;-80
2024/04/15 00:16:43;;;;;;;11.45;3.40;;;6.40;99.90;;;;;;5335745;26;20071;-80
2024/04/15 00:19:08;;;;;;;8.48;2.97;;;6.30;99.90;;;;;;5330549;26;20024;-81
2024/04/15 00:21:34;;;;;;;10.30;2.80;;;6.30;99.90;;;;;;5335510;26;20004;-80
2024/04/15 00:24:00;;;;;;;8.35;3.03;;;6.30;99.90;;;;;;5335770;26;20009;-80
2024/04/15 00:26:26;;;;;;;9.45;3.17;;;6.30;99.90;;;;;;5333869;26;20009;-80
2024/04/15 00:28:52;;;;;;;8.20;2.60;;;6.30;99.90;;;;;;5361373;26;20037;-80
2024/04/15 00:31:18;;;;;;;9.38;2.95;;;6.20;99.90;;;;;;5334153;26;20008;-80
2024/04/15 00:33:46;;;;;;;7.85;2.95;;;6.30;99.90;;;;;;5334249;26;20012;-80
2024/04/15 00:36:12;;;;;;;10.00;2.67;;;6.20;99.90;;;;;;5336192;26;20026;-80
2024/04/15 00:38:38;;;;;;;8.40;3.05;;;6.20;99.90;;;;;;5337604;26;20001;-80
2024/04/15 00:41:04;;;;;;;11.45;3.55;;;6.20;99.90;;;;;;5332321;26;20069;-80
2024/04/15 00:43:29;;;;;;;7.78;2.63;;;6.10;99.90;;;;;;5333585;26;20008;-80
2024/04/15 00:45:55;;;;;;;9.75;2.97;;;6.00;99.90;;;;;;5334651;26;20016;-80
2024/04/15 00:48:22;;;;;;;9.75;3.00;;;5.90;99.90;;;;;;5333873;26;20468;-80
2024/04/15 00:50:50;;;;;;;10.57;3.28;;;5.80;99.90;;;;;;5330553;26;20020;-80
2024/04/15 00:53:21;;;;;;;12.43;3.50;;;5.70;99.90;;;;;;5332602;26;20001;-80
2024/04/15 00:55:51;;;;;;;10.90;3.85;;;5.70;99.90;;;;;;5331898;26;20016;-80
2024/04/15 00:58:19;;;;;;;9.57;3.05;;;5.60;99.90;;;;;;5329767;26;20011;-80
2024/04/15 01:00:45;;;;;;;9.13;3.05;;;5.60;99.90;;;;;;5332326;26;20009;-80
2024/04/15 01:03:12;;;;;;;9.95;3.05;;;5.50;99.90;;;;;;5335831;26;20017;-80
2024/04/15 01:05:38;;;;;;;9.45;3.13;;;5.60;99.90;;;;;;5332638;26;20000;-76
2024/04/15 01:08:05;;;;;;;9.02;3.30;;;5.50;99.90;;;;;;5334053;26;20904;-75
2024/04/15 01:10:51;;;;;;;11.52;3.83;;;5.50;99.90;;;;;;5308051;26;20001;-75
2024/04/15 01:13:16;;;;;;;11.02;2.80;;;5.50;99.90;;;;;;5336541;26;20490;-75
2024/04/15 01:15:44;;;;;;;10.02;3.53;;;5.40;99.90;;;;;;5329590;26;20070;-81
2024/04/15 01:18:10;;;;;;;10.20;3.33;;;5.50;99.90;;;;;;5328557;26;20857;-83
2024/04/15 01:20:36;;;;;;;7.97;3.17;;;5.60;99.90;;;;;;5335441;26;20008;-82
2024/04/15 01:23:05;;;;;;;8.82;2.97;;;5.60;99.90;;;;;;5328634;26;20001;-81
2024/04/15 01:25:34;;;;;;;9.23;2.92;;;5.50;99.90;;;;;;5331411;26;20127;-81
2024/04/15 01:28:01;;;;;;;10.02;3.22;;;5.60;99.90;;;;;;5330877;26;20085;-81
2024/04/15 01:30:36;;;;;;;9.23;3.50;;;5.60;99.90;;;;;;5333422;26;20025;-81
2024/04/15 01:33:02;;;;;;;12.80;4.30;;;5.70;99.90;;;;;;5333626;26;20009;-81
2024/04/15 01:35:28;;;;;;;13.18;4.03;;;5.70;99.90;;;;;;5333335;26;20020;-81
2024/04/15 01:37:56;;;;;;;11.23;4.18;;;5.60;99.90;;;;;;5333554;26;20017;-81
2024/04/15 01:40:22;;;;;;;11.77;3.40;;;5.70;99.90;;;;;;5333325;26;20005;-81
2024/04/15 01:42:48;;;;;;;9.82;3.67;;;5.60;99.90;;;;;;5333841;26;20074;-81
2024/04/15 01:45:14;;;;;;;10.05;3.60;;;5.70;99.90;;;;;;5336631;26;20016;-81
2024/04/15 01:47:42;;;;;;;9.65;3.42;;;5.70;99.90;;;;;;5331443;26;20005;-81
2024/04/15 01:50:07;;;;;;;9.75;3.78;;;5.70;99.90;;;;;;5335158;26;20005;-81
2024/04/15 01:52:33;;;;;;;6.93;3.40;;;5.70;99.90;;;;;;5334922;26;20573;-81
2024/04/15 01:54:59;;;;;;;12.35;3.67;;;5.70;99.90;;;;;;5331253;26;20015;-81
2024/04/15 01:57:25;;;;;;;9.80;3.67;;;5.70;99.90;;;;;;5339630;26;20446;-81
2024/04/15 01:59:51;;;;;;;11.55;4.07;;;5.70;99.90;;;;;;5330987;26;20444;-81
2024/04/15 02:02:17;;;;;;;11.13;3.60;;;5.90;99.90;;;;;;5332942;26;20004;-81
2024/04/15 02:04:46;;;;;;;11.13;4.03;;;5.70;99.90;;;;;;5327208;26;20079;-80
2024/04/15 02:07:12;;;;;;;9.05;4.10;;;5.70;99.90;;;;;;5341293;26;20052;-80
2024/04/15 02:09:38;;;;;;;10.40;4.20;;;5.80;99.90;;;;;;5331859;26;19996;-80
2024/04/15 02:12:04;;;;;;;10.65;4.10;;;5.70;99.90;;;;;;5333272;26;20009;-81
2024/04/15 02:14:30;;;;;;;10.60;3.58;;;5.80;99.90;;;;;;5344887;26;20020;-80
2024/04/15 02:16:59;;;;;;;9.32;3.80;;;5.80;99.90;;;;;;5329335;26;20004;-80
2024/04/15 02:19:25;;;;;;;10.77;4.55;;;5.90;99.90;;;;;;5318767;26;20010;-80
2024/04/15 02:21:52;;;;;;;8.43;4.07;;;5.90;99.90;;;;;;5331555;26;20025;-80
2024/04/15 02:24:18;;;;;;;10.38;4.28;;;5.90;99.90;;;;;;5340730;26;20015;-80
2024/04/15 02:26:43;;;;;;;12.88;5.68;;;6.00;99.90;;;;;;5338604;26;20388;-80
2024/04/15 02:29:09;;;;;;;12.52;4.90;;;6.00;99.90;;;;;;5330522;26;20048;-80
2024/04/15 02:31:35;;;;;;;10.90;4.78;;;6.10;99.90;;;;;;5336117;26;20431;-80
2024/04/15 02:34:01;;;;;;;13.63;5.07;;;6.10;99.90;;;;;;5332096;26;20001;-80
2024/04/15 02:36:27;;;;;;;8.13;3.92;;;6.30;99.90;;;;;;5342194;26;20049;-80
2024/04/15 02:38:53;;;;;;;7.65;3.92;;;6.20;99.90;;;;;;5337078;26;20074;-80
2024/04/15 02:41:19;;;;;;;13.35;4.82;;;6.30;99.90;;;;;;5337209;26;20017;-80
2024/04/15 02:43:45;;;;;;;12.68;4.47;;;6.40;99.90;;;;;;5334772;26;20056;-80
2024/04/15 02:46:12;;;;;;;11.88;5.07;;;6.40;99.90;;;;;;5339474;26;20023;-80
2024/04/15 02:48:38;;;;;;;8.95;4.22;;;6.50;99.90;;;;;;5336036;26;20009;-80
2024/04/15 02:51:04;;;;;;;8.10;4.07;;;6.50;99.90;;;;;;5338033;26;20428;-80
2024/04/15 02:53:32;;;;;;;12.63;4.45;;;6.50;99.90;;;;;;5335501;26;20027;-80
2024/04/15 02:55:58;;;;;;;11.82;4.40;;;6.60;99.90;;;;;;5338785;26;20079;-81
2024/04/15 02:58:24;;;;;;;11.80;5.00;;;6.60;99.90;;;;;;5336863;26;20017;-80
2024/04/15 03:00:50;;;;;;;8.85;4.20;;;6.70;99.90;;;;;;5333719;26;20329;-80
2024/04/15 03:03:16;;;;;;;8.77;3.60;;;6.70;99.90;;;;;;5338827;26;20017;-80
2024/04/15 03:06:02;;;;;;;9.10;4.40;;;6.70;99.90;;;;;;5332363;26;20009;-80
2024/04/15 03:08:28;;;;;;;9.43;4.00;;;6.70;99.90;;;;;;5334957;26;20453;-80
2024/04/15 03:10:54;;;;;;;10.00;4.78;;;6.70;99.90;;;;;;5338355;26;20009;-80
2024/04/15 03:13:20;;;;;;;10.90;4.00;;;6.80;99.90;;;;;;5334592;26;20533;-80
2024/04/15 03:15:53;;;;;;;11.98;3.90;;;6.80;99.90;;;;;;5333548;26;21277;-79
2024/04/15 03:18:19;;;;;;;8.82;3.45;;;6.90;99.90;;;;;;5335057;26;20013;-80
2024/04/15 03:20:45;;;;;;;10.18;4.90;;;6.80;99.90;;;;;;5337042;26;20560;-80
2024/04/15 03:23:30;;;;;;;9.50;3.67;;;6.90;99.90;;;;;;5334539;26;20012;-80
2024/04/15 03:25:56;;;;;;;7.35;3.58;;;6.80;99.90;;;;;;5335449;26;20048;-81
2024/04/15 03:28:24;;;;;;;8.65;3.70;;;6.80;99.90;;;;;;5333763;26;20012;-80
2024/04/15 03:30:50;;;;;;;13.20;3.92;;;6.80;99.90;;;;;;5337360;26;20060;-80
2024/04/15 03:33:23;;;;;;;8.35;3.95;;;6.90;99.90;;;;;;5333356;26;20005;-81
2024/04/15 03:35:49;;;;;;;8.00;3.60;;;6.90;99.90;;;;;;5335926;26;20009;-80
2024/04/15 03:38:14;;;;;;;9.88;4.00;;;6.90;99.90;;;;;;5393192;26;20005;-80
2024/04/15 03:40:40;;;;;;;8.52;4.03;;;6.90;99.90;;;;;;5393101;26;20539;-80
2024/04/15 03:43:24;;;;;;;10.77;3.45;;;6.90;99.90;;;;;;5333553;26;20074;-80
2024/04/15 03:45:50;;;;;;;12.05;4.10;;;7.00;99.90;;;;;;5337679;26;20016;-81
2024/04/15 03:48:19;;;;;;;8.40;3.55;;;7.00;99.90;;;;;;5328254;26;20443;-80
2024/04/15 03:50:58;;;;;;;8.50;3.58;;;7.00;99.90;;;;;;5335001;26;20019;-80
2024/04/15 03:53:23;;;;;;;7.38;3.55;;;7.00;99.90;;;;;;5334979;26;20091;-80
2024/04/15 03:55:55;;;;;;;9.63;4.03;;;7.00;99.90;;;;;;5331852;26;20446;-80
2024/04/15 03:58:41;;;;;;;10.30;3.60;;;7.10;99.90;;;;;;5334173;26;20005;-79
2024/04/15 04:01:07;;;;;;;7.45;3.55;;;7.10;99.90;;;;;;5329224;26;20008;-79
2024/04/15 04:03:33;;;;;;;7.95;3.40;;;7.10;99.90;;;;;;5338056;26;20045;-79
2024/04/15 04:06:00;;;;;;;8.38;3.60;;;7.10;99.90;;;;;;5339421;26;20004;-80
2024/04/15 04:08:28;;;;;;;8.63;3.70;;;7.20;99.90;;;;;;5332541;26;20001;-80
2024/04/15 04:11:14;;;;;;;7.50;3.20;;;7.10;99.90;;;;;;5316719;26;20005;-79
2024/04/15 04:13:39;;;;;;;7.57;3.70;;;7.20;99.90;;;;;;5332276;26;20001;-79
2024/04/15 04:16:10;;;;;;;8.15;3.63;;;7.10;99.90;;;;;;5320144;26;20020;-79
2024/04/15 04:18:36;;;;;;;9.35;3.92;;;7.10;99.90;;;;;;5334751;26;20013;-79
2024/04/15 04:21:22;;;;;;;7.30;3.22;;;7.00;99.90;;;;;;5326715;26;20033;-80
2024/04/15 04:23:57;;;;;;;11.77;3.47;;;7.10;99.90;;;;;;5337304;26;20027;-79
2024/04/15 04:26:23;;;;;;;7.65;3.28;;;7.10;99.90;;;;;;5306833;26;20005;-80
2024/04/15 04:28:49;;;;;;;11.68;4.50;;;7.10;99.90;;;;;;5336896;26;20009;-80
2024/04/15 04:31:16;;;;;;;8.85;4.03;;;7.10;99.90;;;;;;5336284;26;20009;-79
2024/04/15 04:33:42;;;;;;;6.13;3.10;;;7.10;99.90;;;;;;5328819;26;19997;-79
2024/04/15 04:36:08;;;;;;;11.70;3.60;;;7.10;99.90;;;;;;5370266;26;20356;-80
2024/04/15 04:38:34;;;;;;;10.05;4.03;;;7.00;99.90;;;;;;5340035;26;20023;-80
2024/04/15 04:41:01;;;;;;;9.15;3.80;;;7.00;99.90;;;;;;5337271;26;20021;-80
2024/04/15 04:43:27;;;;;;;8.93;3.70;;;7.00;99.90;;;;;;5337429;26;20001;-80
2024/04/15 04:45:54;;;;;;;10.60;3.38;;;7.00;99.90;;;;;;5337765;26;20478;-80
2024/04/15 04:48:20;;;;;;;9.38;4.22;;;7.00;99.90;;;;;;5339245;26;20009;-80
2024/04/15 04:50:46;;;;;;;10.50;4.15;;;7.00;99.90;;;;;;5335854;26;20021;-80
2024/04/15 04:53:13;;;;;;;10.77;4.28;;;7.00;99.90;;;;;;5394301;26;20001;-79
2024/04/15 04:55:39;;;;;;;7.93;3.70;;;6.90;99.90;;;;;;5336167;26;20023;-80
2024/04/15 04:58:07;;;;;;;9.32;4.00;;;7.00;99.90;;;;;;5345654;26;20060;-80
2024/04/15 05:00:33;;;;;;;9.57;4.43;;;7.00;99.90;;;;;;5333541;26;20009;-79
2024/04/15 05:02:59;;;;;;;9.50;4.50;;;7.00;99.90;;;;;;5337679;26;20009;-80
2024/04/15 05:05:25;;;;;;;11.20;4.50;;;7.00;99.90;;;;;;5315878;26;20011;-80
2024/04/15 05:07:52;;;;;;;9.13;4.47;;;7.00;99.90;;;;;;5331221;26;20449;-79
2024/04/15 05:10:18;;;;;;;9.10;3.70;;;7.00;99.90;;;;;;5335681;26;20008;-80
2024/04/15 05:12:43;;;;;;;12.00;4.57;;;6.90;99.90;;;;;;5332245;26;20004;-80
2024/04/15 05:15:09;;;;;;;12.27;6.07;;;7.00;99.90;;;;;;5334367;26;20016;-79
2024/04/15 05:17:35;;;;;;;15.18;5.70;;;7.00;99.90;;;;;;5336791;26;20020;-80
2024/04/15 05:20:01;;;;;;;8.85;4.95;;;7.00;99.90;;;;;;5333073;26;20053;-79
2024/04/15 05:22:28;;;;;;;11.38;5.07;;;7.00;99.90;;;;;;5333655;26;20001;-80
2024/04/15 05:24:54;;;;;;;11.57;4.93;;;7.00;99.90;;;;;;5331583;26;20017;-80
2024/04/15 05:27:20;;;;;;;13.75;5.90;;;7.10;99.90;;;;;;5338497;26;20013;-80
2024/04/15 05:29:46;;;;;;;13.52;5.15;;;7.00;99.90;;;;;;5333029;26;20016;-80
2024/04/15 05:32:12;;;;;;;9.73;4.57;;;7.10;99.90;;;;;;5364294;26;20023;-80
2024/04/15 05:34:38;;;;;;;11.98;5.28;;;7.10;99.90;;;;;;5336023;26;20017;-80
2024/04/15 05:37:07;;;;;;;9.68;5.78;;;7.10;99.90;;;;;;5336288;26;20328;-80
2024/04/15 05:39:33;;;;;;;12.75;5.55;;;7.10;99.90;;;;;;5337290;26;20498;-80
2024/04/15 05:41:59;;;;;;;12.15;5.35;;;7.10;99.90;;;;;;5338528;26;20009;-80
2024/04/15 05:44:25;;;;;;;11.93;5.80;;;7.30;99.90;;;;;;5335240;26;20005;-80
2024/04/15 05:46:52;;;;;;;11.80;5.10;;;7.30;99.90;;;;;;5340432;26;20082;-80
2024/04/15 05:49:18;;;;;;;11.63;5.53;;;7.30;99.90;;;;;;5338078;26;20017;-80
2024/04/15 05:51:45;;;;;;;13.30;5.82;;;7.40;99.90;;;;;;5337445;26;19997;-80
2024/04/15 05:54:11;;;;;;;10.43;5.10;;;7.50;99.90;;;;;;5337085;26;20036;-80
2024/04/15 05:56:37;;;;;;;10.55;4.80;;;7.60;99.90;;;;;;5336460;26;20013;-80
2024/04/15 05:59:03;;;;;;;12.35;5.28;;;7.60;99.90;;;;;;5337119;26;20382;-80
2024/04/15 06:01:29;;;;;;;10.50;5.13;;;7.70;99.90;;;;;;5335350;26;20008;-80
2024/04/15 06:03:54;;;;;;;10.52;5.90;;;7.80;99.90;;;;;;5339616;26;20008;-80
2024/04/15 06:06:20;;;;;;;13.88;5.47;;;7.80;99.90;;;;;;5333494;26;20028;-79
2024/04/15 06:08:47;;;;;;;12.85;6.57;;;7.90;99.90;;;;;;5336357;26;20086;-80
2024/04/15 06:11:13;;;;;;;14.23;5.82;;;7.90;99.90;;;;;;5335207;26;20009;-80
2024/04/15 06:13:39;;;;;;;11.63;6.68;;;7.90;99.90;;;;;;5337978;26;20092;-79
2024/04/15 06:16:05;;;;;;;13.38;6.25;;;8.00;99.90;;;;;;5337800;26;20013;-80
2024/04/15 06:18:31;;;;;;;14.75;5.90;;;8.00;99.90;;;;;;5337174;26;20000;-80
2024/04/15 06:20:57;;;;;;;11.18;6.13;;;8.00;99.90;;;;;;5336159;26;19997;-80
2024/04/15 06:23:23;;;;;;;14.05;6.47;;;8.00;99.90;;;;;;5338158;26;20019;-80
2024/04/15 06:25:52;;;;;;;15.65;6.55;;;8.00;99.90;;;;;;5334441;26;20484;-80
2024/04/15 06:28:21;;;;;;;13.45;6.75;;;8.10;99.90;;;;;;5333137;26;20000;-80
2024/04/15 06:30:50;;;;;;;14.65;7.22;;;8.10;99.90;;;;;;5364900;26;20347;-80
2024/04/15 06:33:16;;;;;;;15.55;6.97;;;8.10;99.90;;;;;;5337411;26;20444;-81
2024/04/15 06:35:41;;;;;;;12.10;6.22;;;8.30;99.90;;;;;;5338680;26;20028;-79
2024/04/15 06:38:09;;;;;;;14.02;6.70;;;8.40;99.90;;;;;;5335164;26;20012;-81
2024/04/15 06:40:35;;;;;;;13.18;5.90;;;8.50;99.90;;;;;;5332711;26;20379;-82
2024/04/15 06:43:01;;;;;;;12.27;6.18;;;8.60;99.90;;;;;;5329355;26;20013;-82
2024/04/15 06:45:27;;;;;;;15.68;6.47;;;8.90;99.90;;;;;;5334806;26;20009;-80
2024/04/15 06:47:53;;;;;;;12.05;6.35;;;8.90;99.90;;;;;;5333869;26;20005;-82
2024/04/15 06:50:19;;;;;;;11.93;5.85;;;9.00;99.90;;;;;;5336768;26;20393;-81
2024/04/15 06:52:45;;;;;;;13.55;6.00;;;9.10;99.90;;;;;;5335675;26;20050;-81
2024/04/15 06:55:14;;;;;;;12.40;5.63;;;9.10;99.90;;;;;;5337300;26;20016;-82
2024/04/15 06:57:40;;;;;;;12.48;5.85;;;9.20;99.90;;;;;;5331638;26;20019;-81
2024/04/15 07:00:06;;;;;;;19.73;6.55;;;9.30;99.90;;;;;;5337500;26;20009;-83
2024/04/15 07:02:32;;;;;;;17.50;6.00;;;9.30;99.90;;;;;;5335105;26;20055;-83
2024/04/15 07:04:58;;;;;;;12.02;5.80;;;9.40;99.90;;;;;;5334529;26;20009;-82
2024/04/15 07:07:25;;;;;;;12.38;5.85;;;9.50;99.90;;;;;;5339174;26;20355;-82
2024/04/15 07:09:52;;;;;;;12.18;5.50;;;9.60;99.90;;;;;;5334024;26;20083;-81
2024/04/15 07:12:18;;;;;;;16.77;5.97;;;9.60;99.90;;;;;;5330991;26;20108;-82
2024/04/15 07:14:46;;;;;;;13.40;5.82;;;9.70;99.90;;;;;;5334090;26;20017;-82
2024/04/15 07:17:12;;;;;;;13.25;5.57;;;9.80;99.90;;;;;;5333556;26;20015;-81
2024/04/15 07:19:38;;;;;;;12.48;5.68;;;9.90;99.90;;;;;;5330954;26;20091;-81
2024/04/15 07:22:04;;;;;;;11.27;5.10;;;10.10;99.90;;;;;;5337166;26;20020;-82
2024/04/15 07:24:29;;;;;;;13.38;5.50;;;10.40;99.90;;;;;;5339776;26;20063;-81
2024/04/15 07:26:56;;;;;;;12.02;4.93;;;10.50;99.90;;;;;;5332299;26;20009;-81
2024/04/15 07:29:21;;;;;;;12.98;5.38;;;10.60;99.90;;;;;;5331497;26;20082;-81
2024/04/15 07:31:47;;;;;;;10.15;4.97;;;10.60;99.90;;;;;;5334141;26;20328;-81
2024/04/15 07:34:13;;;;;;;14.82;5.43;;;10.70;99.90;;;;;;5332697;26;20036;-82
2024/04/15 07:36:39;;;;;;;15.88;5.20;;;10.60;99.90;;;;;;5337787;26;20009;-81
2024/04/15 07:39:05;;;;;;;12.90;5.05;;;10.70;99.90;;;;;;5333026;26;20039;-81
2024/04/15 07:41:31;;;;;;;13.00;5.53;;;10.60;99.90;;;;;;5335115;26;20009;-81
2024/04/15 07:43:57;;;;;;;12.85;5.28;;;10.70;99.90;;;;;;5333686;26;20016;-80
2024/04/15 07:46:23;;;;;;;10.38;4.63;;;10.70;99.90;;;;;;5334687;26;20008;-81
2024/04/15 07:48:50;;;;;;;13.82;5.38;;;10.80;99.90;;;;;;5335685;26;20017;-82
2024/04/15 07:51:16;;;;;;;13.18;5.65;;;10.90;99.90;;;;;;5336761;26;20017;-81
2024/04/15 07:53:44;;;;;;;12.98;4.97;;;10.90;99.90;;;;;;5334626;26;20525;-80
2024/04/15 07:56:11;;;;;;;10.07;4.55;;;11.00;99.90;;;;;;5337019;26;20005;-80
2024/04/15 07:58:37;;;;;;;10.00;4.20;;;10.90;99.90;;;;;;5335725;26;20344;-80
2024/04/15 08:01:03;;;;;;;13.02;4.30;;;11.00;99.90;;;;;;5335252;26;20011;-81
2024/04/15 08:03:29;;;;;;;9.13;4.47;;;10.90;99.90;;;;;;5331814;26;20049;-80
2024/04/15 08:05:54;;;;;;;11.85;5.15;;;10.90;99.90;;;;;;5336577;26;20024;-81
2024/04/15 08:08:20;;;;;;;9.68;5.20;;;11.00;99.90;;;;;;5330363;26;20180;-81
2024/04/15 08:10:47;;;;;;;15.60;5.97;;;10.90;99.90;;;;;;5340937;26;20015;-80
2024/04/15 08:13:13;;;;;;;13.13;6.03;;;10.90;99.90;;;;;;5333978;26;20009;-81
2024/04/15 08:15:42;;;;;;;11.73;5.50;;;10.90;99.90;;;;;;5362912;26;20012;-80
2024/04/15 08:18:08;;;;;;;12.17;5.77;;;10.90;99.90;;;;;;5337676;26;20005;-80
2024/04/15 08:20:34;;;;;;;10.90;6.22;;;11.00;99.90;;;;;;5336657;26;20019;-82
2024/04/15 08:23:00;;;;;;;13.85;5.95;;;11.00;99.90;;;;;;5335533;26;20035;-83
2024/04/15 08:25:26;;;;;;;12.77;5.80;;;11.10;99.90;;;;;;5339258;26;20565;-80
2024/04/15 08:27:52;;;;;;;12.48;5.15;;;11.20;99.90;;;;;;5332457;26;20019;-81
2024/04/15 08:30:19;;;;;;;9.13;5.38;;;11.40;99.90;;;;;;5331478;26;20496;-80
2024/04/15 08:32:45;;;;;;;13.35;5.30;;;11.50;99.90;;;;;;5328686;26;20017;-83
2024/04/15 08:35:11;;;;;;;10.80;5.10;;;11.70;99.90;;;;;;5361521;26;20032;-82
2024/04/15 08:37:37;;;;;;;10.48;4.88;;;11.80;99.90;;;;;;5335142;26;20838;-82
2024/04/15 08:40:04;;;;;;;7.72;4.50;;;11.70;99.90;;;;;;5335651;26;20008;-81
2024/04/15 08:42:36;;;;;;;13.63;4.70;;;11.70;99.90;;;;;;5336584;26;20001;-82
2024/04/15 08:45:06;;;;;;;12.00;4.88;;;11.70;99.90;;;;;;5333048;26;20079;-82
2024/04/15 08:47:35;;;;;;;9.30;4.53;;;11.90;99.90;;;;;;5335419;26;20005;-82
2024/04/15 08:50:03;;;;;;;9.40;3.70;;;12.10;99.90;;;;;;5332949;26;20019;-82
2024/04/15 08:52:29;;;;;;;9.00;3.78;;;12.30;99.90;;;;;;5334433;26;20009;-83
2024/04/15 08:54:54;;;;;;;7.47;3.65;;;12.40;99.90;;;;;;5333232;26;20021;-82
2024/04/15 08:57:21;;;;;;;6.82;3.35;;;12.30;99.90;;;;;;5336738;26;20001;-82
2024/04/15 08:59:49;;;;;;;7.57;2.75;;;12.20;99.90;;;;;;5331827;26;20009;-81
2024/04/15 09:02:16;;;;;;;8.73;3.45;;;12.20;99.90;;;;;;5336740;26;20040;-82
2024/04/15 09:04:46;;;;;;;8.05;3.40;;;12.10;99.90;;;;;;5335043;26;19997;-81
2024/04/15 09:07:12;;;;;;;8.77;3.03;;;12.10;99.90;;;;;;5393753;26;20352;-82
2024/04/15 09:09:38;;;;;;;7.50;2.90;;;12.00;99.90;;;;;;5331386;26;20117;-82
2024/04/15 09:12:05;;;;;;;6.47;2.67;;;11.90;99.90;;;;;;5333408;26;20005;-82
2024/04/15 09:14:31;;;;;;;11.07;3.13;;;11.90;99.90;;;;;;5331732;26;20042;-81
2024/04/15 09:16:57;;;;;;;7.85;3.00;;;11.80;99.90;;;;;;5336048;26;20020;-82
2024/04/15 09:19:24;;;;;;;10.48;2.60;;;11.80;99.90;;;;;;5335580;26;20081;-82
2024/04/15 09:21:57;;;;;;;8.35;2.63;;;11.90;99.90;;;;;;5331915;26;20322;-82
2024/04/15 09:24:26;;;;;;;5.93;2.50;;;12.10;99.90;;;;;;5332730;26;20063;-83
2024/04/15 09:26:52;;;;;;;6.88;2.22;;;12.30;99.90;;;;;;5328192;26;20344;-81
2024/04/15 09:29:18;;;;;;;5.15;1.83;;;12.40;99.90;;;;;;5331755;26;20091;-81
2024/04/15 09:31:44;;;;;;;7.18;2.08;;;12.30;99.90;;;;;;5334863;26;20348;-83
2024/04/15 09:34:10;;;;;;;7.38;2.28;;;12.20;99.90;;;;;;5329752;26;20015;-81
2024/04/15 09:36:40;;;;;;;7.15;1.92;;;12.20;99.90;;;;;;5332780;26;20556;-82
2024/04/15 09:39:07;;;;;;;8.80;2.40;;;12.20;99.90;;;;;;5335451;26;20009;-82
2024/04/15 09:41:34;;;;;;;6.90;2.22;;;12.20;99.90;;;;;;5331731;26;20019;-82
2024/04/15 09:44:00;;;;;;;6.25;2.35;;;12.20;99.90;;;;;;5334093;26;20018;-82
2024/04/15 09:46:29;;;;;;;9.20;2.60;;;12.30;99.90;;;;;;5331260;26;20101;-82
2024/04/15 09:48:56;;;;;;;6.60;2.13;;;12.30;99.90;;;;;;5332100;26;20480;-83
2024/04/15 09:51:23;;;;;;;7.38;2.42;;;12.20;99.90;;;;;;5333695;26;20020;-82
2024/04/15 09:53:53;;;;;;;9.00;2.38;;;12.20;99.90;;;;;;5331051;26;20001;-82
2024/04/15 09:56:26;;;;;;;4.63;2.13;;;12.20;99.90;;;;;;5334850;26;20462;-82
2024/04/15 09:58:55;;;;;;;6.97;1.73;;;12.20;99.90;;;;;;5326693;26;20001;-81
2024/04/15 10:01:32;;;;;;;4.50;1.50;;;12.10;99.90;;;;;;5331425;26;20387;-80
2024/04/15 10:04:01;;;;;;;5.82;1.88;;;12.10;99.90;;;;;;5333489;26;20009;-81
2024/04/15 10:06:35;;;;;;;8.07;1.50;;;12.10;99.90;;;;;;5332892;26;20108;-82
2024/04/15 10:09:02;;;;;;;7.78;1.90;;;12.00;99.90;;;;;;5327597;26;20237;-82
2024/04/15 10:11:28;;;;;;;5.13;1.75;;;12.00;99.90;;;;;;5330408;26;20078;-80
2024/04/15 10:13:57;;;;;;;6.10;1.60;;;12.00;99.90;;;;;;5324031;26;20006;-81
2024/04/15 10:16:23;;;;;;;10.65;2.35;;;12.00;99.90;;;;;;5327548;26;21025;-82
2024/04/15 10:18:56;;;;;;;5.00;1.95;;;12.00;99.90;;;;;;5325027;26;20009;-83
2024/04/15 10:21:23;;;;;;;9.15;2.45;;;12.10;99.90;;;;;;5329205;26;20009;-83
2024/04/15 10:23:49;;;;;;;8.23;2.45;;;12.10;99.90;;;;;;5337654;26;20017;-82
2024/04/15 10:26:15;;;;;;;7.30;2.17;;;12.10;99.90;;;;;;5332249;26;20013;-83
2024/04/15 10:28:41;;;;;;;8.20;2.30;;;12.00;99.90;;;;;;5334832;26;20005;-82
2024/04/15 10:31:12;;;;;;;6.10;2.28;;;12.00;99.90;;;;;;5331483;26;20008;-81
2024/04/15 10:33:49;;;;;;;7.30;2.72;;;12.00;99.90;;;;;;5323811;26;20336;-82
2024/04/15 10:36:29;;;;;;;6.82;2.53;;;11.90;99.90;;;;;;5325480;26;20132;-79
2024/04/15 10:38:54;;;;;;;7.57;2.88;;;11.90;99.90;;;;;;5334583;26;20075;-80
2024/04/15 10:41:21;;;;;;;7.45;3.35;;;11.80;99.90;;;;;;5336873;26;20724;-82
2024/04/15 10:43:48;;;;;;;7.07;3.35;;;11.80;99.90;;;;;;5332504;26;20024;-80
2024/04/15 10:46:20;;;;;;;11.05;3.63;;;11.70;99.90;;;;;;5337034;26;20019;-82
2024/04/15 10:48:46;;;;;;;6.88;3.00;;;11.70;99.90;;;;;;5336989;26;20012;-81
2024/04/15 10:51:12;;;;;;;10.07;3.78;;;11.60;99.90;;;;;;5335613;26;20019;-79
2024/04/15 10:53:37;;;;;;;12.05;3.85;;;11.60;99.90;;;;;;5336909;26;20011;-81
2024/04/15 10:56:04;;;;;;;11.10;4.72;;;11.60;99.90;;;;;;5336846;26;20443;-82
2024/04/15 10:58:30;;;;;;;5.50;3.78;;;11.60;99.90;;;;;;5333113;26;20001;-81
2024/04/15 11:00:56;;;;;;;8.75;4.82;;;11.50;99.90;;;;;;5335839;26;20009;-80
2024/04/15 11:03:24;;;;;;;9.50;4.90;;;11.50;99.90;;;;;;5331599;26;20339;-80
2024/04/15 11:05:50;;;;;;;8.77;4.80;;;11.50;99.90;;;;;;5332811;26;20009;-81
2024/04/15 11:08:16;;;;;;;7.72;5.25;;;11.30;99.90;;;;;;5337347;26;20016;-79
2024/04/15 11:10:43;;;;;;;10.45;6.43;;;11.20;99.90;;;;;;5337244;26;20487;-82
2024/04/15 11:13:11;;;;;;;6.93;5.50;;;11.00;99.90;;;;;;5335685;26;20024;-79
2024/04/15 11:15:39;;;;;;;9.77;6.50;;;10.80;99.90;;;;;;5334748;26;20342;-80
2024/04/15 11:18:12;;;;;;;7.82;6.50;;;10.70;99.90;;;;;;5327923;26;20008;-80
2024/04/15 11:20:38;;;;;;;13.88;7.38;;;10.60;99.90;;;;;;5335130;26;20013;-79
2024/04/15 11:23:06;;;;;;;11.30;7.55;;;10.50;99.90;;;;;;5330976;26;20087;-79
2024/04/15 11:25:33;;;;;;;13.27;7.72;;;10.50;99.90;;;;;;5335937;26;20001;-80
2024/04/15 11:27:59;;;;;;;11.10;8.32;;;10.30;99.90;;;;;;5334510;26;20086;-77
2024/04/15 11:30:28;;;;;;;8.95;8.15;;;10.30;99.90;;;;;;5335441;26;20103;-78
2024/04/15 11:32:56;;;;;;;13.45;9.70;;;10.20;99.90;;;;;;5334773;26;20009;-78
2024/04/15 11:35:22;;;;;;;10.52;9.27;;;10.10;99.90;;;;;;5332676;26;20088;-78
2024/04/15 11:38:02;;;;;;;10.65;9.13;;;10.20;99.90;;;;;;5333010;26;20105;-79
2024/04/15 11:40:28;;;;;;;13.45;9.18;;;10.20;99.90;;;;;;5337915;26;20083;-79
2024/04/15 11:42:56;;;;;;;13.70;9.35;;;10.20;99.90;;;;;;5388359;26;20005;-79
2024/04/15 11:45:23;;;;;;;10.90;8.18;;;10.30;99.90;;;;;;5338098;26;20017;-81
2024/04/15 11:47:54;;;;;;;11.00;8.27;;;10.40;99.90;;;;;;5331825;26;20029;-80
2024/04/15 11:50:21;;;;;;;10.50;8.02;;;10.50;99.90;;;;;;5338206;26;20135;-80
2024/04/15 11:52:51;;;;;;;10.52;7.65;;;10.40;99.90;;;;;;5334595;26;19997;-80
2024/04/15 11:55:20;;;;;;;11.60;7.90;;;10.40;99.90;;;;;;5336897;26;20363;-79
2024/04/15 11:57:46;;;;;;;12.40;8.25;;;10.30;99.90;;;;;;5334517;26;20009;-79
2024/04/15 12:00:13;;;;;;;9.80;8.15;;;10.20;99.90;;;;;;5333431;26;20001;-80
2024/04/15 12:02:43;;;;;;;13.18;8.43;;;10.20;99.90;;;;;;5361573;26;20005;-79
2024/04/15 12:05:11;;;;;;;11.45;8.85;;;10.20;99.90;;;;;;5334604;26;20489;-80
2024/04/15 12:07:41;;;;;;;11.35;7.30;;;10.30;99.90;;;;;;5335998;26;19997;-79
2024/04/15 12:10:11;;;;;;;11.73;7.22;;;10.30;99.90;;;;;;5333867;26;20016;-79
2024/04/15 12:12:38;;;;;;;12.35;6.35;;;10.40;99.90;;;;;;5334471;26;20005;-81
2024/04/15 12:15:05;;;;;;;10.15;6.10;;;10.50;99.90;;;;;;5337105;26;20023;-81
2024/04/15 12:17:32;;;;;;;9.20;6.10;;;10.70;99.90;;;;;;5335389;26;20078;-81
2024/04/15 12:19:59;;;;;;;11.70;5.85;;;10.80;99.90;;;;;;5335892;26;20017;-81
2024/04/15 12:22:24;;;;;;;8.43;4.65;;;10.90;99.90;;;;;;5333400;26;20012;-79
2024/04/15 12:24:50;;;;;;;9.85;4.63;;;11.00;99.90;;;;;;5364542;26;20009;-81
2024/04/15 12:27:16;;;;;;;8.38;4.82;;;10.90;99.90;;;;;;5330523;26;20547;-81
2024/04/15 12:29:42;;;;;;;10.30;4.85;;;10.90;99.90;;;;;;5335369;26;20008;-82
2024/04/15 12:32:08;;;;;;;9.63;3.90;;;10.80;99.90;;;;;;5331258;26;20009;-81
2024/04/15 12:34:35;;;;;;;6.13;3.38;;;10.80;99.90;;;;;;5337050;26;20099;-83
2024/04/15 12:37:01;;;;;;;6.07;2.83;;;10.90;99.90;;;;;;5336028;26;20009;-81
2024/04/15 12:39:27;;;;;;;4.85;2.25;;;10.80;99.90;;;;;;5332844;26;20602;-84
2024/04/15 12:41:54;;;;;;;5.45;2.70;;;10.80;99.90;;;;;;5390121;26;20094;-82
2024/04/15 12:44:24;;;;;;;5.65;2.25;;;10.90;99.90;;;;;;5330029;26;20016;-87
2024/04/15 12:46:50;;;;;;;4.05;2.05;;;11.10;99.90;;;;;;5334906;26;20522;-83
2024/04/15 12:49:16;;;;;;;5.70;2.08;;;11.20;99.90;;;;;;5339421;26;20024;-85